sensor_id;sensor_type;location;lat;lon;timestamp;P1;durP1;ratioP1;P2;durP2;ratioP2
16326;SDS011;34812;49.846;9.610;2023-05-07T00:00:10;3.10;;;2.40;;
16326;SDS011;34812;49.846;9.610;2023-05-07T00:01:12;2.53;;;2.33;;
16326;SDS011;34812;49.846;9.610;2023-05-07T00:02:14;4.47;;;2.30;;
16326;SDS011;34812;49.846;9.610;2023-05-07T00:03:15;2.40;;;2.13;;
16326;SDS011;34812;49.846;9.610;2023-05-07T00:04:17;2.43;;;2.07;;
16326;SDS011;34812;49.846;9.610;2023-05-07T00:05:17;2.47;;;2.27;;
16326;SDS011;34812;49.846;9.610;2023-05-07T00:06:21;3.33;;;1.90;;
16326;SDS011;34812;49.846;9.610;2023-05-07T00:07:22;3.10;;;2.00;;
16326;SDS011;34812;49.846;9.610;2023-05-07T00:08:24;2.23;;;2.10;;
16326;SDS011;34812;49.846;9.610;2023-05-07T00:09:25;2.53;;;2.07;;
16326;SDS011;34812;49.846;9.610;2023-05-07T00:10:26;2.10;;;1.90;;
16326;SDS011;34812;49.846;9.610;2023-05-07T00:11:27;2.60;;;2.17;;
16326;SDS011;34812;49.846;9.610;2023-05-07T00:12:29;3.03;;;2.10;;
16326;SDS011;34812;49.846;9.610;2023-05-07T00:13:31;2.57;;;2.37;;
16326;SDS011;34812;49.846;9.610;2023-05-07T00:14:35;3.80;;;2.20;;
16326;SDS011;34812;49.846;9.610;2023-05-07T00:15:36;4.53;;;2.60;;
16326;SDS011;34812;49.846;9.610;2023-05-07T00:16:37;2.77;;;1.93;;
16326;SDS011;34812;49.846;9.610;2023-05-07T00:17:38;3.53;;;2.10;;
16326;SDS011;34812;49.846;9.610;2023-05-07T00:18:40;2.60;;;2.40;;
16326;SDS011;34812;49.846;9.610;2023-05-07T00:19:41;3.20;;;2.30;;
16326;SDS011;34812;49.846;9.610;2023-05-07T00:20:42;5.23;;;2.40;;
16326;SDS011;34812;49.846;9.610;2023-05-07T00:21:44;3.50;;;2.40;;
16326;SDS011;34812;49.846;9.610;2023-05-07T00:22:46;3.43;;;2.33;;
16326;SDS011;34812;49.846;9.610;2023-05-07T00:23:47;3.57;;;2.70;;
16326;SDS011;34812;49.846;9.610;2023-05-07T00:24:49;4.90;;;2.87;;
16326;SDS011;34812;49.846;9.610;2023-05-07T00:25:50;3.13;;;2.83;;
16326;SDS011;34812;49.846;9.610;2023-05-07T00:26:52;3.17;;;2.73;;
16326;SDS011;34812;49.846;9.610;2023-05-07T00:27:52;3.70;;;3.00;;
16326;SDS011;34812;49.846;9.610;2023-05-07T00:28:54;3.27;;;2.60;;
16326;SDS011;34812;49.846;9.610;2023-05-07T00:29:55;3.90;;;2.73;;
16326;SDS011;34812;49.846;9.610;2023-05-07T00:30:57;3.47;;;2.60;;
16326;SDS011;34812;49.846;9.610;2023-05-07T00:31:58;6.03;;;2.83;;
16326;SDS011;34812;49.846;9.610;2023-05-07T00:32:59;2.50;;;2.30;;
16326;SDS011;34812;49.846;9.610;2023-05-07T00:34:00;3.13;;;2.40;;
16326;SDS011;34812;49.846;9.610;2023-05-07T00:35:02;4.47;;;2.13;;
16326;SDS011;34812;49.846;9.610;2023-05-07T00:36:04;3.07;;;2.53;;
16326;SDS011;34812;49.846;9.610;2023-05-07T00:37:07;3.80;;;2.77;;
16326;SDS011;34812;49.846;9.610;2023-05-07T00:38:08;4.00;;;3.03;;
16326;SDS011;34812;49.846;9.610;2023-05-07T00:39:10;3.77;;;2.53;;
16326;SDS011;34812;49.846;9.610;2023-05-07T00:40:11;2.53;;;2.30;;
16326;SDS011;34812;49.846;9.610;2023-05-07T00:41:13;3.37;;;2.43;;
16326;SDS011;34812;49.846;9.610;2023-05-07T00:42:13;4.57;;;2.50;;
16326;SDS011;34812;49.846;9.610;2023-05-07T00:43:16;2.30;;;2.10;;
16326;SDS011;34812;49.846;9.610;2023-05-07T00:44:17;4.13;;;2.30;;
16326;SDS011;34812;49.846;9.610;2023-05-07T00:45:19;4.23;;;2.37;;
16326;SDS011;34812;49.846;9.610;2023-05-07T00:46:20;2.43;;;2.20;;
16326;SDS011;34812;49.846;9.610;2023-05-07T00:47:22;3.57;;;2.53;;
16326;SDS011;34812;49.846;9.610;2023-05-07T00:48:23;2.97;;;2.10;;
16326;SDS011;34812;49.846;9.610;2023-05-07T00:49:26;2.17;;;2.07;;
16326;SDS011;34812;49.846;9.610;2023-05-07T00:50:35;2.13;;;2.03;;
16326;SDS011;34812;49.846;9.610;2023-05-07T00:51:37;4.23;;;2.70;;
16326;SDS011;34812;49.846;9.610;2023-05-07T00:52:39;3.03;;;2.33;;
16326;SDS011;34812;49.846;9.610;2023-05-07T00:53:42;3.90;;;2.57;;
16326;SDS011;34812;49.846;9.610;2023-05-07T00:54:43;4.90;;;2.57;;
16326;SDS011;34812;49.846;9.610;2023-05-07T00:55:45;3.40;;;2.90;;
16326;SDS011;34812;49.846;9.610;2023-05-07T00:56:46;4.63;;;2.60;;
16326;SDS011;34812;49.846;9.610;2023-05-07T00:57:48;4.73;;;2.90;;
16326;SDS011;34812;49.846;9.610;2023-05-07T00:58:50;3.70;;;2.73;;
16326;SDS011;34812;49.846;9.610;2023-05-07T00:59:52;2.83;;;2.63;;
16326;SDS011;34812;49.846;9.610;2023-05-07T01:00:53;3.87;;;2.30;;
16326;SDS011;34812;49.846;9.610;2023-05-07T01:01:54;4.20;;;2.50;;
16326;SDS011;34812;49.846;9.610;2023-05-07T01:02:55;5.23;;;2.70;;
16326;SDS011;34812;49.846;9.610;2023-05-07T01:03:57;6.40;;;2.70;;
16326;SDS011;34812;49.846;9.610;2023-05-07T01:04:58;3.17;;;2.40;;
16326;SDS011;34812;49.846;9.610;2023-05-07T01:06:01;2.80;;;2.50;;
16326;SDS011;34812;49.846;9.610;2023-05-07T01:07:03;2.87;;;2.40;;
16326;SDS011;34812;49.846;9.610;2023-05-07T01:08:08;4.13;;;3.00;;
16326;SDS011;34812;49.846;9.610;2023-05-07T01:09:10;4.60;;;2.57;;
16326;SDS011;34812;49.846;9.610;2023-05-07T01:10:13;2.40;;;2.20;;
16326;SDS011;34812;49.846;9.610;2023-05-07T01:11:15;2.80;;;2.60;;
16326;SDS011;34812;49.846;9.610;2023-05-07T01:12:17;3.20;;;2.60;;
16326;SDS011;34812;49.846;9.610;2023-05-07T01:13:18;3.37;;;2.43;;
16326;SDS011;34812;49.846;9.610;2023-05-07T01:14:21;3.00;;;2.50;;
16326;SDS011;34812;49.846;9.610;2023-05-07T01:15:22;2.70;;;2.40;;
16326;SDS011;34812;49.846;9.610;2023-05-07T01:16:24;3.60;;;2.60;;
16326;SDS011;34812;49.846;9.610;2023-05-07T01:17:25;5.30;;;2.60;;
16326;SDS011;34812;49.846;9.610;2023-05-07T01:18:27;3.10;;;2.23;;
16326;SDS011;34812;49.846;9.610;2023-05-07T01:19:30;2.70;;;2.50;;
16326;SDS011;34812;49.846;9.610;2023-05-07T01:20:33;2.90;;;2.70;;
16326;SDS011;34812;49.846;9.610;2023-05-07T01:21:34;4.20;;;2.70;;
16326;SDS011;34812;49.846;9.610;2023-05-07T01:22:40;2.90;;;2.30;;
16326;SDS011;34812;49.846;9.610;2023-05-07T01:23:43;2.57;;;2.37;;
16326;SDS011;34812;49.846;9.610;2023-05-07T01:24:46;3.37;;;2.43;;
16326;SDS011;34812;49.846;9.610;2023-05-07T01:25:51;2.83;;;2.63;;
16326;SDS011;34812;49.846;9.610;2023-05-07T01:26:55;3.23;;;2.23;;
16326;SDS011;34812;49.846;9.610;2023-05-07T01:27:56;2.87;;;2.53;;
16326;SDS011;34812;49.846;9.610;2023-05-07T01:29:02;2.57;;;2.33;;
16326;SDS011;34812;49.846;9.610;2023-05-07T01:30:04;3.17;;;2.80;;
16326;SDS011;34812;49.846;9.610;2023-05-07T01:31:06;2.93;;;2.40;;
16326;SDS011;34812;49.846;9.610;2023-05-07T01:32:09;5.63;;;2.90;;
16326;SDS011;34812;49.846;9.610;2023-05-07T01:33:13;3.00;;;2.80;;
16326;SDS011;34812;49.846;9.610;2023-05-07T01:34:18;3.57;;;3.00;;
16326;SDS011;34812;49.846;9.610;2023-05-07T01:35:24;3.33;;;3.03;;
16326;SDS011;34812;49.846;9.610;2023-05-07T01:36:29;4.83;;;2.90;;
16326;SDS011;34812;49.846;9.610;2023-05-07T01:37:31;4.30;;;2.90;;
16326;SDS011;34812;49.846;9.610;2023-05-07T01:38:34;3.13;;;2.73;;
16326;SDS011;34812;49.846;9.610;2023-05-07T01:39:37;5.00;;;2.80;;
16326;SDS011;34812;49.846;9.610;2023-05-07T01:40:39;4.67;;;2.70;;
16326;SDS011;34812;49.846;9.610;2023-05-07T01:41:42;3.57;;;2.70;;
16326;SDS011;34812;49.846;9.610;2023-05-07T01:42:43;2.70;;;2.50;;
16326;SDS011;34812;49.846;9.610;2023-05-07T01:43:46;3.70;;;2.97;;
16326;SDS011;34812;49.846;9.610;2023-05-07T01:44:48;4.33;;;2.67;;
16326;SDS011;34812;49.846;9.610;2023-05-07T01:45:49;3.50;;;3.20;;
16326;SDS011;34812;49.846;9.610;2023-05-07T01:46:50;4.30;;;2.67;;
16326;SDS011;34812;49.846;9.610;2023-05-07T01:47:52;3.33;;;3.03;;
16326;SDS011;34812;49.846;9.610;2023-05-07T01:48:54;4.20;;;2.60;;
16326;SDS011;34812;49.846;9.610;2023-05-07T01:49:55;3.60;;;2.90;;
16326;SDS011;34812;49.846;9.610;2023-05-07T01:50:57;3.07;;;2.60;;
16326;SDS011;34812;49.846;9.610;2023-05-07T01:51:59;4.63;;;2.80;;
16326;SDS011;34812;49.846;9.610;2023-05-07T01:53:01;4.03;;;2.63;;
16326;SDS011;34812;49.846;9.610;2023-05-07T01:54:05;3.10;;;2.80;;
16326;SDS011;34812;49.846;9.610;2023-05-07T01:55:07;3.30;;;3.00;;
16326;SDS011;34812;49.846;9.610;2023-05-07T01:56:09;4.17;;;3.30;;
16326;SDS011;34812;49.846;9.610;2023-05-07T01:57:12;6.33;;;3.10;;
16326;SDS011;34812;49.846;9.610;2023-05-07T01:58:13;3.37;;;3.10;;
16326;SDS011;34812;49.846;9.610;2023-05-07T01:59:14;2.70;;;2.50;;
16326;SDS011;34812;49.846;9.610;2023-05-07T02:00:16;7.47;;;2.97;;
16326;SDS011;34812;49.846;9.610;2023-05-07T02:01:19;3.70;;;2.60;;
16326;SDS011;34812;49.846;9.610;2023-05-07T02:02:21;4.13;;;2.70;;
16326;SDS011;34812;49.846;9.610;2023-05-07T02:03:22;3.90;;;3.00;;
16326;SDS011;34812;49.846;9.610;2023-05-07T02:04:32;4.33;;;2.67;;
16326;SDS011;34812;49.846;9.610;2023-05-07T02:05:32;2.80;;;2.60;;
16326;SDS011;34812;49.846;9.610;2023-05-07T02:06:43;6.17;;;2.70;;
16326;SDS011;34812;49.846;9.610;2023-05-07T02:07:45;3.07;;;2.77;;
16326;SDS011;34812;49.846;9.610;2023-05-07T02:08:47;4.30;;;2.50;;
16326;SDS011;34812;49.846;9.610;2023-05-07T02:09:50;5.13;;;2.63;;
16326;SDS011;34812;49.846;9.610;2023-05-07T02:10:52;3.00;;;2.70;;
16326;SDS011;34812;49.846;9.610;2023-05-07T02:11:53;3.83;;;2.40;;
16326;SDS011;34812;49.846;9.610;2023-05-07T02:12:56;3.07;;;2.70;;
16326;SDS011;34812;49.846;9.610;2023-05-07T02:13:56;5.50;;;3.00;;
16326;SDS011;34812;49.846;9.610;2023-05-07T02:14:58;3.27;;;2.83;;
16326;SDS011;34812;49.846;9.610;2023-05-07T02:15:59;3.03;;;2.77;;
16326;SDS011;34812;49.846;9.610;2023-05-07T02:17:02;3.67;;;2.80;;
16326;SDS011;34812;49.846;9.610;2023-05-07T02:18:03;2.90;;;2.70;;
16326;SDS011;34812;49.846;9.610;2023-05-07T02:19:07;4.17;;;2.83;;
16326;SDS011;34812;49.846;9.610;2023-05-07T02:20:07;3.20;;;2.70;;
16326;SDS011;34812;49.846;9.610;2023-05-07T02:21:14;3.40;;;2.60;;
16326;SDS011;34812;49.846;9.610;2023-05-07T02:22:15;2.60;;;2.40;;
16326;SDS011;34812;49.846;9.610;2023-05-07T02:23:17;3.07;;;2.67;;
16326;SDS011;34812;49.846;9.610;2023-05-07T02:24:17;3.63;;;2.80;;
16326;SDS011;34812;49.846;9.610;2023-05-07T02:25:21;4.00;;;2.60;;
16326;SDS011;34812;49.846;9.610;2023-05-07T02:26:21;3.23;;;2.80;;
16326;SDS011;34812;49.846;9.610;2023-05-07T02:27:23;3.23;;;2.40;;
16326;SDS011;34812;49.846;9.610;2023-05-07T02:28:24;4.63;;;2.87;;
16326;SDS011;34812;49.846;9.610;2023-05-07T02:29:34;2.67;;;2.33;;
16326;SDS011;34812;49.846;9.610;2023-05-07T02:30:36;5.93;;;2.63;;
16326;SDS011;34812;49.846;9.610;2023-05-07T02:31:37;7.93;;;2.93;;
16326;SDS011;34812;49.846;9.610;2023-05-07T02:32:39;3.40;;;2.70;;
16326;SDS011;34812;49.846;9.610;2023-05-07T02:33:40;3.67;;;2.93;;
16326;SDS011;34812;49.846;9.610;2023-05-07T02:34:43;2.80;;;2.53;;
16326;SDS011;34812;49.846;9.610;2023-05-07T02:35:44;2.80;;;2.60;;
16326;SDS011;34812;49.846;9.610;2023-05-07T02:36:48;2.70;;;2.50;;
16326;SDS011;34812;49.846;9.610;2023-05-07T02:37:52;3.20;;;2.67;;
16326;SDS011;34812;49.846;9.610;2023-05-07T02:38:55;3.00;;;2.63;;
16326;SDS011;34812;49.846;9.610;2023-05-07T02:39:55;3.23;;;2.83;;
16326;SDS011;34812;49.846;9.610;2023-05-07T02:40:58;3.30;;;2.90;;
16326;SDS011;34812;49.846;9.610;2023-05-07T02:41:59;3.00;;;2.77;;
16326;SDS011;34812;49.846;9.610;2023-05-07T02:43:01;2.80;;;2.60;;
16326;SDS011;34812;49.846;9.610;2023-05-07T02:44:02;3.93;;;3.00;;
16326;SDS011;34812;49.846;9.610;2023-05-07T02:45:06;3.77;;;3.17;;
16326;SDS011;34812;49.846;9.610;2023-05-07T02:46:08;2.50;;;2.30;;
16326;SDS011;34812;49.846;9.610;2023-05-07T02:47:14;3.47;;;3.17;;
16326;SDS011;34812;49.846;9.610;2023-05-07T02:48:17;4.40;;;3.07;;
16326;SDS011;34812;49.846;9.610;2023-05-07T02:49:19;3.17;;;2.90;;
16326;SDS011;34812;49.846;9.610;2023-05-07T02:50:21;3.33;;;3.13;;
16326;SDS011;34812;49.846;9.610;2023-05-07T02:51:22;3.33;;;3.03;;
16326;SDS011;34812;49.846;9.610;2023-05-07T02:52:24;2.83;;;2.63;;
16326;SDS011;34812;49.846;9.610;2023-05-07T02:53:26;3.07;;;2.80;;
16326;SDS011;34812;49.846;9.610;2023-05-07T02:54:27;4.90;;;2.93;;
16326;SDS011;34812;49.846;9.610;2023-05-07T02:55:29;3.80;;;2.93;;
16326;SDS011;34812;49.846;9.610;2023-05-07T02:56:31;3.53;;;2.57;;
16326;SDS011;34812;49.846;9.610;2023-05-07T02:57:33;2.70;;;2.50;;
16326;SDS011;34812;49.846;9.610;2023-05-07T02:58:34;2.97;;;2.77;;
16326;SDS011;34812;49.846;9.610;2023-05-07T02:59:37;4.10;;;3.17;;
16326;SDS011;34812;49.846;9.610;2023-05-07T03:00:38;2.90;;;2.63;;
16326;SDS011;34812;49.846;9.610;2023-05-07T03:01:50;4.47;;;3.00;;
16326;SDS011;34812;49.846;9.610;2023-05-07T03:02:51;3.13;;;2.77;;
16326;SDS011;34812;49.846;9.610;2023-05-07T03:03:53;4.40;;;2.80;;
16326;SDS011;34812;49.846;9.610;2023-05-07T03:04:54;3.27;;;2.80;;
16326;SDS011;34812;49.846;9.610;2023-05-07T03:05:56;3.40;;;3.10;;
16326;SDS011;34812;49.846;9.610;2023-05-07T03:06:57;4.07;;;3.17;;
16326;SDS011;34812;49.846;9.610;2023-05-07T03:07:59;4.60;;;2.80;;
16326;SDS011;34812;49.846;9.610;2023-05-07T03:08:59;4.30;;;2.80;;
16326;SDS011;34812;49.846;9.610;2023-05-07T03:10:01;3.20;;;2.90;;
16326;SDS011;34812;49.846;9.610;2023-05-07T03:11:02;4.30;;;3.20;;
16326;SDS011;34812;49.846;9.610;2023-05-07T03:12:05;3.37;;;2.80;;
16326;SDS011;34812;49.846;9.610;2023-05-07T03:13:07;4.00;;;2.70;;
16326;SDS011;34812;49.846;9.610;2023-05-07T03:14:08;3.20;;;2.70;;
16326;SDS011;34812;49.846;9.610;2023-05-07T03:15:10;4.30;;;2.93;;
16326;SDS011;34812;49.846;9.610;2023-05-07T03:16:12;3.13;;;2.83;;
16326;SDS011;34812;49.846;9.610;2023-05-07T03:17:13;3.47;;;2.90;;
16326;SDS011;34812;49.846;9.610;2023-05-07T03:18:16;3.57;;;3.00;;
16326;SDS011;34812;49.846;9.610;2023-05-07T03:19:16;3.87;;;2.70;;
16326;SDS011;34812;49.846;9.610;2023-05-07T03:20:18;3.87;;;2.73;;
16326;SDS011;34812;49.846;9.610;2023-05-07T03:21:19;3.87;;;2.93;;
16326;SDS011;34812;49.846;9.610;2023-05-07T03:22:21;3.10;;;2.77;;
16326;SDS011;34812;49.846;9.610;2023-05-07T03:23:22;4.03;;;2.63;;
16326;SDS011;34812;49.846;9.610;2023-05-07T03:24:23;3.90;;;2.97;;
16326;SDS011;34812;49.846;9.610;2023-05-07T03:25:24;3.10;;;2.83;;
16326;SDS011;34812;49.846;9.610;2023-05-07T03:26:26;3.43;;;3.00;;
16326;SDS011;34812;49.846;9.610;2023-05-07T03:27:28;4.43;;;2.90;;
16326;SDS011;34812;49.846;9.610;2023-05-07T03:28:30;4.27;;;3.33;;
16326;SDS011;34812;49.846;9.610;2023-05-07T03:29:35;4.07;;;3.13;;
16326;SDS011;34812;49.846;9.610;2023-05-07T03:30:37;3.80;;;3.10;;
16326;SDS011;34812;49.846;9.610;2023-05-07T03:31:37;4.40;;;3.00;;
16326;SDS011;34812;49.846;9.610;2023-05-07T03:32:39;3.20;;;2.90;;
16326;SDS011;34812;49.846;9.610;2023-05-07T03:33:50;2.93;;;2.73;;
16326;SDS011;34812;49.846;9.610;2023-05-07T03:34:52;3.53;;;3.00;;
16326;SDS011;34812;49.846;9.610;2023-05-07T03:35:53;3.30;;;3.00;;
16326;SDS011;34812;49.846;9.610;2023-05-07T03:36:58;4.97;;;2.80;;
16326;SDS011;34812;49.846;9.610;2023-05-07T03:38:01;3.43;;;3.13;;
16326;SDS011;34812;49.846;9.610;2023-05-07T03:39:04;2.90;;;2.70;;
16326;SDS011;34812;49.846;9.610;2023-05-07T03:40:12;4.47;;;2.90;;
16326;SDS011;34812;49.846;9.610;2023-05-07T03:41:19;3.30;;;3.00;;
16326;SDS011;34812;49.846;9.610;2023-05-07T03:42:21;3.03;;;2.83;;
16326;SDS011;34812;49.846;9.610;2023-05-07T03:43:26;5.77;;;2.90;;
16326;SDS011;34812;49.846;9.610;2023-05-07T03:44:35;6.27;;;3.50;;
16326;SDS011;34812;49.846;9.610;2023-05-07T03:45:36;4.47;;;2.97;;
16326;SDS011;34812;49.846;9.610;2023-05-07T03:46:46;3.17;;;2.83;;
16326;SDS011;34812;49.846;9.610;2023-05-07T03:47:47;3.33;;;3.03;;
16326;SDS011;34812;49.846;9.610;2023-05-07T03:48:52;3.90;;;2.90;;
16326;SDS011;34812;49.846;9.610;2023-05-07T03:49:53;3.23;;;2.90;;
16326;SDS011;34812;49.846;9.610;2023-05-07T03:50:57;3.23;;;3.00;;
16326;SDS011;34812;49.846;9.610;2023-05-07T03:52:01;3.50;;;3.20;;
16326;SDS011;34812;49.846;9.610;2023-05-07T03:53:04;3.53;;;3.30;;
16326;SDS011;34812;49.846;9.610;2023-05-07T03:54:08;5.30;;;3.53;;
16326;SDS011;34812;49.846;9.610;2023-05-07T03:55:11;5.53;;;3.37;;
16326;SDS011;34812;49.846;9.610;2023-05-07T03:56:14;4.13;;;3.73;;
16326;SDS011;34812;49.846;9.610;2023-05-07T03:57:16;6.03;;;3.80;;
16326;SDS011;34812;49.846;9.610;2023-05-07T03:58:17;4.10;;;3.80;;
16326;SDS011;34812;49.846;9.610;2023-05-07T03:59:21;3.77;;;3.47;;
16326;SDS011;34812;49.846;9.610;2023-05-07T04:00:23;3.87;;;3.50;;
16326;SDS011;34812;49.846;9.610;2023-05-07T04:01:24;3.37;;;3.17;;
16326;SDS011;34812;49.846;9.610;2023-05-07T04:02:25;4.80;;;3.53;;
16326;SDS011;34812;49.846;9.610;2023-05-07T04:03:28;4.00;;;3.70;;
16326;SDS011;34812;49.846;9.610;2023-05-07T04:04:32;4.03;;;3.73;;
16326;SDS011;34812;49.846;9.610;2023-05-07T04:05:34;4.00;;;3.60;;
16326;SDS011;34812;49.846;9.610;2023-05-07T04:06:37;4.43;;;4.03;;
16326;SDS011;34812;49.846;9.610;2023-05-07T04:07:39;4.20;;;3.50;;
16326;SDS011;34812;49.846;9.610;2023-05-07T04:08:40;3.93;;;3.40;;
16326;SDS011;34812;49.846;9.610;2023-05-07T04:09:41;4.40;;;3.57;;
16326;SDS011;34812;49.846;9.610;2023-05-07T04:10:42;3.47;;;3.27;;
16326;SDS011;34812;49.846;9.610;2023-05-07T04:11:45;3.70;;;3.40;;
16326;SDS011;34812;49.846;9.610;2023-05-07T04:12:46;3.80;;;3.10;;
16326;SDS011;34812;49.846;9.610;2023-05-07T04:13:52;3.77;;;3.47;;
16326;SDS011;34812;49.846;9.610;2023-05-07T04:14:57;4.57;;;3.53;;
16326;SDS011;34812;49.846;9.610;2023-05-07T04:16:00;6.17;;;3.80;;
16326;SDS011;34812;49.846;9.610;2023-05-07T04:17:02;4.20;;;3.53;;
16326;SDS011;34812;49.846;9.610;2023-05-07T04:18:04;4.20;;;3.80;;
16326;SDS011;34812;49.846;9.610;2023-05-07T04:19:05;6.87;;;3.47;;
16326;SDS011;34812;49.846;9.610;2023-05-07T04:20:08;5.73;;;3.87;;
16326;SDS011;34812;49.846;9.610;2023-05-07T04:21:14;3.73;;;3.43;;
16326;SDS011;34812;49.846;9.610;2023-05-07T04:22:16;3.83;;;3.43;;
16326;SDS011;34812;49.846;9.610;2023-05-07T04:23:17;4.50;;;3.73;;
16326;SDS011;34812;49.846;9.610;2023-05-07T04:24:19;3.83;;;3.53;;
16326;SDS011;34812;49.846;9.610;2023-05-07T04:25:20;4.17;;;3.67;;
16326;SDS011;34812;49.846;9.610;2023-05-07T04:26:29;4.53;;;4.13;;
16326;SDS011;34812;49.846;9.610;2023-05-07T04:27:30;3.70;;;3.40;;
16326;SDS011;34812;49.846;9.610;2023-05-07T04:28:33;3.60;;;3.20;;
16326;SDS011;34812;49.846;9.610;2023-05-07T04:29:34;3.60;;;3.30;;
16326;SDS011;34812;49.846;9.610;2023-05-07T04:30:37;3.67;;;3.27;;
16326;SDS011;34812;49.846;9.610;2023-05-07T04:31:40;5.30;;;3.80;;
16326;SDS011;34812;49.846;9.610;2023-05-07T04:32:44;2.93;;;2.73;;
16326;SDS011;34812;49.846;9.610;2023-05-07T04:33:45;3.43;;;3.13;;
16326;SDS011;34812;49.846;9.610;2023-05-07T04:34:48;3.60;;;3.30;;
16326;SDS011;34812;49.846;9.610;2023-05-07T04:35:49;4.13;;;3.40;;
16326;SDS011;34812;49.846;9.610;2023-05-07T04:36:50;4.23;;;3.27;;
16326;SDS011;34812;49.846;9.610;2023-05-07T04:37:52;3.87;;;3.47;;
16326;SDS011;34812;49.846;9.610;2023-05-07T04:38:54;5.73;;;3.40;;
16326;SDS011;34812;49.846;9.610;2023-05-07T04:39:54;4.10;;;3.67;;
16326;SDS011;34812;49.846;9.610;2023-05-07T04:40:57;4.10;;;3.73;;
16326;SDS011;34812;49.846;9.610;2023-05-07T04:42:02;3.90;;;3.50;;
16326;SDS011;34812;49.846;9.610;2023-05-07T04:43:04;3.73;;;3.43;;
16326;SDS011;34812;49.846;9.610;2023-05-07T04:44:09;3.63;;;3.40;;
16326;SDS011;34812;49.846;9.610;2023-05-07T04:45:11;3.33;;;3.03;;
16326;SDS011;34812;49.846;9.610;2023-05-07T04:46:15;4.03;;;3.30;;
16326;SDS011;34812;49.846;9.610;2023-05-07T04:47:18;3.83;;;3.40;;
16326;SDS011;34812;49.846;9.610;2023-05-07T04:48:19;3.63;;;2.90;;
16326;SDS011;34812;49.846;9.610;2023-05-07T04:49:22;3.40;;;3.03;;
16326;SDS011;34812;49.846;9.610;2023-05-07T04:50:24;3.40;;;3.10;;
16326;SDS011;34812;49.846;9.610;2023-05-07T04:51:30;3.77;;;3.47;;
16326;SDS011;34812;49.846;9.610;2023-05-07T04:52:32;4.10;;;2.80;;
16326;SDS011;34812;49.846;9.610;2023-05-07T04:53:34;4.77;;;3.43;;
16326;SDS011;34812;49.846;9.610;2023-05-07T04:54:35;3.50;;;3.20;;
16326;SDS011;34812;49.846;9.610;2023-05-07T04:55:37;3.50;;;3.20;;
16326;SDS011;34812;49.846;9.610;2023-05-07T04:56:39;3.67;;;3.37;;
16326;SDS011;34812;49.846;9.610;2023-05-07T04:57:41;4.47;;;3.73;;
16326;SDS011;34812;49.846;9.610;2023-05-07T04:58:44;3.97;;;3.60;;
16326;SDS011;34812;49.846;9.610;2023-05-07T04:59:46;4.83;;;3.07;;
16326;SDS011;34812;49.846;9.610;2023-05-07T05:00:47;3.70;;;3.40;;
16326;SDS011;34812;49.846;9.610;2023-05-07T05:01:50;3.60;;;3.30;;
16326;SDS011;34812;49.846;9.610;2023-05-07T05:02:51;3.37;;;2.73;;
16326;SDS011;34812;49.846;9.610;2023-05-07T05:03:55;3.43;;;3.13;;
16326;SDS011;34812;49.846;9.610;2023-05-07T05:04:57;2.73;;;2.53;;
16326;SDS011;34812;49.846;9.610;2023-05-07T05:05:59;2.93;;;2.73;;
16326;SDS011;34812;49.846;9.610;2023-05-07T05:07:03;3.63;;;2.80;;
16326;SDS011;34812;49.846;9.610;2023-05-07T05:08:05;5.13;;;3.33;;
16326;SDS011;34812;49.846;9.610;2023-05-07T05:09:09;3.63;;;3.30;;
16326;SDS011;34812;49.846;9.610;2023-05-07T05:10:11;3.43;;;3.13;;
16326;SDS011;34812;49.846;9.610;2023-05-07T05:11:15;3.30;;;3.10;;
16326;SDS011;34812;49.846;9.610;2023-05-07T05:12:16;3.63;;;3.10;;
16326;SDS011;34812;49.846;9.610;2023-05-07T05:13:18;3.57;;;3.37;;
16326;SDS011;34812;49.846;9.610;2023-05-07T05:14:20;3.60;;;3.30;;
16326;SDS011;34812;49.846;9.610;2023-05-07T05:15:21;3.67;;;3.37;;
16326;SDS011;34812;49.846;9.610;2023-05-07T05:16:23;3.83;;;3.53;;
16326;SDS011;34812;49.846;9.610;2023-05-07T05:17:26;3.60;;;3.33;;
16326;SDS011;34812;49.846;9.610;2023-05-07T05:18:27;3.70;;;3.40;;
16326;SDS011;34812;49.846;9.610;2023-05-07T05:19:29;3.85;;;3.45;;
16326;SDS011;34812;49.846;9.610;2023-05-07T05:20:30;4.10;;;3.80;;
16326;SDS011;34812;49.846;9.610;2023-05-07T05:21:32;3.42;;;3.03;;
16326;SDS011;34812;49.846;9.610;2023-05-07T05:22:39;3.55;;;3.35;;
16326;SDS011;34812;49.846;9.610;2023-05-07T05:23:42;3.78;;;3.47;;
16326;SDS011;34812;49.846;9.610;2023-05-07T05:24:43;3.88;;;3.58;;
16326;SDS011;34812;49.846;9.610;2023-05-07T05:25:45;3.40;;;3.17;;
16326;SDS011;34812;49.846;9.610;2023-05-07T05:26:47;4.68;;;3.60;;
16326;SDS011;34812;49.846;9.610;2023-05-07T05:27:49;3.65;;;3.33;;
16326;SDS011;34812;49.846;9.610;2023-05-07T05:28:50;3.67;;;3.38;;
16326;SDS011;34812;49.846;9.610;2023-05-07T05:29:55;4.20;;;3.90;;
16326;SDS011;34812;49.846;9.610;2023-05-07T05:30:55;3.90;;;3.60;;
16326;SDS011;34812;49.846;9.610;2023-05-07T05:31:59;3.67;;;3.38;;
16326;SDS011;34812;49.846;9.610;2023-05-07T05:33:03;3.40;;;3.10;;
16326;SDS011;34812;49.846;9.610;2023-05-07T05:34:05;3.35;;;3.15;;
16326;SDS011;34812;49.846;9.610;2023-05-07T05:35:06;3.45;;;3.15;;
16326;SDS011;34812;49.846;9.610;2023-05-07T05:36:09;4.45;;;3.72;;
16326;SDS011;34812;49.846;9.610;2023-05-07T05:37:11;4.15;;;3.78;;
16326;SDS011;34812;49.846;9.610;2023-05-07T05:38:13;4.32;;;3.72;;
16326;SDS011;34812;49.846;9.610;2023-05-07T05:39:15;3.90;;;3.60;;
16326;SDS011;34812;49.846;9.610;2023-05-07T05:40:17;3.85;;;3.55;;
16326;SDS011;34812;49.846;9.610;2023-05-07T05:41:17;4.45;;;4.03;;
16326;SDS011;34812;49.846;9.610;2023-05-07T05:42:20;6.13;;;4.00;;
16326;SDS011;34812;49.846;9.610;2023-05-07T05:43:21;3.85;;;3.60;;
16326;SDS011;34812;49.846;9.610;2023-05-07T05:44:23;4.47;;;4.13;;
16326;SDS011;34812;49.846;9.610;2023-05-07T05:45:24;4.97;;;3.40;;
16326;SDS011;34812;49.846;9.610;2023-05-07T05:46:26;6.35;;;4.00;;
16326;SDS011;34812;49.846;9.610;2023-05-07T05:47:27;4.20;;;3.90;;
16326;SDS011;34812;49.846;9.610;2023-05-07T05:48:31;6.00;;;4.35;;
16326;SDS011;34812;49.846;9.610;2023-05-07T05:49:34;5.93;;;4.25;;
16326;SDS011;34812;49.846;9.610;2023-05-07T05:50:38;4.22;;;3.92;;
16326;SDS011;34812;49.846;9.610;2023-05-07T05:51:39;4.55;;;4.13;;
16326;SDS011;34812;49.846;9.610;2023-05-07T05:52:42;4.72;;;4.30;;
16326;SDS011;34812;49.846;9.610;2023-05-07T05:53:43;4.45;;;4.05;;
16326;SDS011;34812;49.846;9.610;2023-05-07T05:54:45;4.75;;;3.97;;
16326;SDS011;34812;49.846;9.610;2023-05-07T05:55:46;4.50;;;4.20;;
16326;SDS011;34812;49.846;9.610;2023-05-07T05:56:48;4.63;;;4.30;;
16326;SDS011;34812;49.846;9.610;2023-05-07T05:57:49;4.50;;;4.20;;
16326;SDS011;34812;49.846;9.610;2023-05-07T05:58:52;4.35;;;4.05;;
16326;SDS011;34812;49.846;9.610;2023-05-07T05:59:53;5.05;;;4.55;;
16326;SDS011;34812;49.846;9.610;2023-05-07T06:00:55;5.00;;;4.60;;
16326;SDS011;34812;49.846;9.610;2023-05-07T06:01:59;4.70;;;4.30;;
16326;SDS011;34812;49.846;9.610;2023-05-07T06:03:00;4.63;;;4.22;;
16326;SDS011;34812;49.846;9.610;2023-05-07T06:04:03;5.10;;;4.78;;
16326;SDS011;34812;49.846;9.610;2023-05-07T06:05:05;4.68;;;4.30;;
16326;SDS011;34812;49.846;9.610;2023-05-07T06:06:06;5.65;;;5.15;;
16326;SDS011;34812;49.846;9.610;2023-05-07T06:07:08;5.70;;;4.60;;
16326;SDS011;34812;49.846;9.610;2023-05-07T06:08:09;5.85;;;5.40;;
16326;SDS011;34812;49.846;9.610;2023-05-07T06:09:11;5.32;;;4.82;;
16326;SDS011;34812;49.846;9.610;2023-05-07T06:10:16;5.60;;;5.20;;
16326;SDS011;34812;49.846;9.610;2023-05-07T06:11:18;6.63;;;5.28;;
16326;SDS011;34812;49.846;9.610;2023-05-07T06:12:20;5.78;;;5.28;;
16326;SDS011;34812;49.846;9.610;2023-05-07T06:13:23;6.63;;;6.00;;
16326;SDS011;34812;49.846;9.610;2023-05-07T06:14:25;5.88;;;5.45;;
16326;SDS011;34812;49.846;9.610;2023-05-07T06:15:29;5.55;;;5.10;;